Somerset, KY (42501)

7:31 AM EST on December 06, 2016 (GMT -0500)
APRSWXNET | | Change Station

Elev 1089 ft 37.12 °N, 84.56 °W | Updated 29 minutes ago

Rain
Rain
48 °F
Feels Like 48 °F
N
1
Wind Variable Wind from SSE
Gusts 2.0 mph

Today
High -- | Low -- °F
--% Chance of Precip.
Yesterday
High -- | Low -- °F
Precip. -- in
Pressure 29.66 in
Visibility 5.0 miles
Clouds Scattered Clouds 900 ft
Mostly Cloudy 1400 ft
Overcast 9000 ft
Windchill 48 °F
Dew Point 46 °F
Humidity 92%
Rainfall in
Snow Depth Not available.
7:38 AM 5:21 PM
Waxing Crescent, 41% visible
METAR KSME 061215Z AUTO 13003KT 5SM RA SCT009 BKN014 OVC090 08/08 A2966 RMK AO2 P0006
Pressure 29.66 in
Visibility 5.0 miles
Clouds Scattered Clouds 900 ft
Mostly Cloudy 1400 ft
Overcast 9000 ft
Windchill 48 °F
Dew Point 46 °F
Humidity 92%
Rainfall in
Snow Depth Not available.
7:38 AM 5:21 PM
Waxing Crescent, 41% visible
METAR KSME 061215Z AUTO 13003KT 5SM RA SCT009 BKN014 OVC090 08/08 A2966 RMK AO2 P0006

10-Day Weather Forecast

Almanac

Astronomy

Dec. 06, 2016 Rise Set
Actual Time
Civil Twilight
Nautical Twilight
Astronomical Twilight
Moon
Length of Visible Light
Length of Day
Tomorrow will be .
, % of the Moon is Illuminated

Today's Extremes

State Highs State Lows

Community

WunderPhotos

Upload Photos

1,955,936 photos uploaded!

WunderBlog® & News

Nearby

Air Quality

  Air Quality AQ Index Pollutant
Not available.

Snow Depth

Station Depth Elevation

Earthquake Activity

City Distance Mag. Time & Date
Minimum magnitude displayed is 2.5.

Coastal Water Temperatures

Place Temperature

Stations

Nearby Weather Stations

Station Location Temp. Windchill Dew Point Humidity Wind Precip. Elev Updated Type
                   

Watches & Warnings

There are currently no watches in effect.